createdAt,value
2018-09-04T00:00:07.597Z,99639.39
2018-09-04T00:01:43.025Z,99632.33
2018-09-04T00:03:18.753Z,99629.34
2018-09-04T00:04:54.685Z,99635.09
2018-09-04T00:06:30.100Z,99633.02
2018-09-04T00:08:05.679Z,99631.06
2018-09-04T00:09:41.187Z,99636.22
2018-09-04T00:11:16.673Z,99632.23
2018-09-04T00:12:52.207Z,99633.55
2018-09-04T00:14:27.689Z,99631.56
2018-09-04T00:16:09.918Z,99622.89
2018-09-04T00:17:45.444Z,99621.94
2018-09-04T00:19:21.050Z,99623.93
2018-09-04T00:20:56.505Z,99618.27
2018-09-04T00:22:32.931Z,99626.29
2018-09-04T00:24:08.546Z,99619.09
2018-09-04T00:25:45.198Z,99622.26
2018-09-04T00:27:20.694Z,99619.59
2018-09-04T00:28:56.208Z,99619.63
2018-09-04T00:30:31.702Z,99618.66
2018-09-04T00:32:07.436Z,99619.65
2018-09-04T00:33:42.953Z,99617.34
2018-09-04T00:35:18.455Z,99622.19
2018-09-04T00:36:54.882Z,99623.34
2018-09-04T00:38:30.358Z,99617.34
2018-09-04T00:40:06.506Z,99622.72
2018-09-04T00:41:42.010Z,99622.56
2018-09-04T00:43:17.501Z,99615.08
2018-09-04T00:44:53.153Z,99621.05
2018-09-04T00:46:28.610Z,99621.20
2018-09-04T00:48:04.192Z,99621.41
2018-09-04T00:49:39.814Z,99626.23
2018-09-04T00:51:15.377Z,99622.25
2018-09-04T00:52:51.464Z,99621.39
2018-09-04T00:54:26.964Z,99618.73
2018-09-04T00:56:02.504Z,99622.70
2018-09-04T00:57:38.046Z,99622.03
2018-09-04T00:59:13.569Z,99614.38
2018-09-04T01:00:49.948Z,99609.84
2018-09-04T01:02:25.442Z,99610.03
2018-09-04T01:04:00.929Z,99613.84
2018-09-04T01:05:36.528Z,99611.39
2018-09-04T01:07:13.505Z,99606.05
2018-09-04T01:08:49.153Z,99612.05
2018-09-04T01:10:24.615Z,99605.56
2018-09-04T01:12:00.079Z,99612.07
2018-09-04T01:13:40.296Z,99608.89
2018-09-04T01:15:15.809Z,99605.39
2018-09-04T01:16:51.333Z,99602.72
2018-09-04T01:18:27.327Z,99598.08
2018-09-04T01:20:03.488Z,99606.25
2018-09-04T01:21:38.974Z,99606.05
2018-09-04T01:23:14.451Z,99602.48
2018-09-04T01:24:49.890Z,99605.33
2018-09-04T01:26:25.385Z,99605.50
2018-09-04T01:28:00.886Z,99603.91
2018-09-04T01:29:36.337Z,99604.72
2018-09-04T01:31:12.702Z,99600.88
2018-09-04T01:32:48.244Z,99603.53
2018-09-04T01:34:23.803Z,99602.73
2018-09-04T01:35:59.246Z,99603.72
2018-09-04T01:37:34.722Z,99603.70
2018-09-04T01:39:10.205Z,99602.55
2018-09-04T01:40:45.740Z,99603.72
2018-09-04T01:42:22.135Z,99606.05
2018-09-04T01:43:58.697Z,99602.04
2018-09-04T01:45:34.200Z,99605.72
2018-09-04T01:47:09.689Z,99605.55
2018-09-04T01:48:45.238Z,99605.89
2018-09-04T01:50:20.708Z,99610.41
2018-09-04T01:51:56.177Z,99616.41
2018-09-04T01:53:32.780Z,99618.41
2018-09-04T01:55:08.288Z,99611.57
2018-09-04T01:56:43.787Z,99613.23
2018-09-04T01:58:19.318Z,99610.21
2018-09-04T01:59:54.791Z,99616.56
2018-09-04T02:01:30.302Z,99614.22
2018-09-04T02:03:06.864Z,99618.07
2018-09-04T02:04:43.227Z,99621.39
2018-09-04T02:06:18.703Z,99614.06
2018-09-04T02:07:54.206Z,99615.73
2018-09-04T02:09:29.687Z,99615.89
2018-09-04T02:11:05.301Z,99609.88
2018-09-04T02:12:40.760Z,99611.06
2018-09-04T02:14:16.218Z,99609.73
2018-09-04T02:15:51.861Z,99605.55
2018-09-04T02:17:27.303Z,99608.39
2018-09-04T02:19:02.884Z,99607.05
2018-09-04T02:20:38.479Z,99610.71
2018-09-04T02:22:13.952Z,99613.71
2018-09-04T02:23:49.440Z,99614.38
2018-09-04T02:25:24.932Z,99610.40
2018-09-04T02:27:00.454Z,99618.55
2018-09-04T02:28:35.965Z,99614.05
2018-09-04T02:30:11.464Z,99610.25
2018-09-04T02:31:47.056Z,99617.39
2018-09-04T02:33:22.531Z,99611.05
2018-09-04T02:34:58.101Z,99614.23
2018-09-04T02:36:33.819Z,99609.73
2018-09-04T02:38:09.519Z,99609.92
2018-09-04T02:39:44.971Z,99609.88
2018-09-04T02:41:21.465Z,99612.59
2018-09-04T02:42:56.986Z,99613.91
2018-09-04T02:44:32.557Z,99616.55
2018-09-04T02:46:08.128Z,99617.39
2018-09-04T02:47:45.726Z,99619.89
2018-09-04T02:49:21.259Z,99622.39
2018-09-04T02:50:56.776Z,99620.23
2018-09-04T02:52:32.251Z,99629.54
2018-09-04T02:54:07.776Z,99617.53
2018-09-04T02:55:43.245Z,99625.71
2018-09-04T02:57:20.746Z,99623.05
2018-09-04T02:58:57.439Z,99622.02
2018-09-04T03:00:33.018Z,99628.22
2018-09-04T03:02:08.509Z,99627.38
2018-09-04T03:03:44.093Z,99626.41
2018-09-04T03:05:19.854Z,99625.89
2018-09-04T03:06:55.686Z,99631.22
2018-09-04T03:08:31.166Z,99634.41
2018-09-04T03:10:07.370Z,99637.90
2018-09-04T03:11:42.867Z,99640.05
2018-09-04T03:13:19.425Z,99638.06
2018-09-04T03:14:55.107Z,99635.56
2018-09-04T03:16:30.657Z,99637.41
2018-09-04T03:18:06.159Z,99636.38
2018-09-04T03:19:41.690Z,99632.41
2018-09-04T03:21:18.107Z,99634.89
2018-09-04T03:22:53.886Z,99630.55
2018-09-04T03:24:29.400Z,99629.05
2018-09-04T03:26:05.200Z,99623.72
2018-09-04T03:27:41.364Z,99626.57
2018-09-04T03:29:16.919Z,99624.25
2018-09-04T03:30:52.560Z,99622.05
2018-09-04T03:32:28.004Z,99620.73
2018-09-04T03:34:03.502Z,99587.88
2018-09-04T03:35:39.015Z,99626.22
2018-09-04T03:37:14.491Z,99618.39
2018-09-04T03:38:50.034Z,99623.56
2018-09-04T03:40:25.665Z,99621.89
2018-09-04T03:42:01.213Z,99628.05
2018-09-04T03:43:36.725Z,99630.21
2018-09-04T03:45:12.214Z,99635.39
2018-09-04T03:46:47.928Z,99632.38
2018-09-04T03:48:23.408Z,99634.52
2018-09-04T03:49:58.997Z,99630.02
2018-09-04T03:51:34.475Z,99624.18
2018-09-04T03:53:09.932Z,99632.05
2018-09-04T03:54:45.423Z,99631.53
2018-09-04T03:56:20.980Z,99631.55
2018-09-04T03:57:56.499Z,99642.19
2018-09-04T03:59:31.999Z,99633.91
2018-09-04T04:01:08.757Z,99634.55
2018-09-04T04:02:44.318Z,99592.40
2018-09-04T04:04:19.909Z,99629.55
2018-09-04T04:05:55.397Z,99631.06
2018-09-04T04:07:30.904Z,99631.38
2018-09-04T04:09:08.487Z,99631.56
2018-09-04T04:10:45.184Z,99620.89
2018-09-04T04:12:20.717Z,99629.07
2018-09-04T04:13:56.191Z,99628.58
2018-09-04T04:15:31.860Z,99628.22
2018-09-04T04:17:07.412Z,99624.69
2018-09-04T04:18:42.931Z,99629.34
2018-09-04T04:20:18.667Z,99619.94
2018-09-04T04:21:54.168Z,99634.22
2018-09-04T04:23:30.878Z,99636.88
2018-09-04T04:25:06.406Z,99637.55
2018-09-04T04:26:41.951Z,99642.69
2018-09-04T04:28:17.514Z,99634.07
2018-09-04T04:29:52.986Z,99637.38
2018-09-04T04:31:29.036Z,99642.88
2018-09-04T04:33:10.635Z,99643.05
2018-09-04T04:34:46.376Z,99637.22
2018-09-04T04:36:21.874Z,99638.55
2018-09-04T04:37:57.388Z,99636.07
2018-09-04T04:39:32.878Z,99634.09
2018-09-04T04:41:09.009Z,99632.39
2018-09-04T04:42:44.821Z,99634.55
2018-09-04T04:44:20.403Z,99634.70
2018-09-04T04:45:55.964Z,99630.05
2018-09-04T04:47:38.559Z,99633.91
2018-09-04T04:49:14.035Z,99637.73
2018-09-04T04:50:49.683Z,99637.90
2018-09-04T04:52:26.149Z,99638.73
2018-09-04T04:54:01.644Z,99629.41
2018-09-04T04:55:39.001Z,99638.73
2018-09-04T04:57:14.506Z,99641.05
2018-09-04T04:58:50.056Z,99639.07
2018-09-04T05:00:25.581Z,99645.56
2018-09-04T05:02:01.118Z,99640.89
2018-09-04T05:03:37.120Z,99652.92
2018-09-04T05:05:13.734Z,99654.27
2018-09-04T05:06:49.249Z,99651.26
2018-09-04T05:08:24.739Z,99650.74
2018-09-04T05:10:01.268Z,99655.23
2018-09-04T05:11:36.823Z,99657.41
2018-09-04T05:13:12.479Z,99652.92
2018-09-04T05:14:48.043Z,99661.93
2018-09-04T05:16:24.518Z,99660.75
2018-09-04T05:18:00.046Z,99658.42
2018-09-04T05:19:35.766Z,99664.60
2018-09-04T05:21:11.255Z,99659.90
2018-09-04T05:22:46.881Z,99658.42
2018-09-04T05:24:22.338Z,99663.10
2018-09-04T05:25:57.820Z,99660.92
2018-09-04T05:27:33.369Z,99666.06
2018-09-04T05:29:08.898Z,99664.58
2018-09-04T05:30:44.418Z,99659.58
2018-09-04T05:32:26.165Z,99666.06
2018-09-04T05:34:01.759Z,99665.08
2018-09-04T05:35:42.626Z,99668.93
2018-09-04T05:37:18.213Z,99674.77
2018-09-04T05:38:53.742Z,99668.08
2018-09-04T05:40:29.222Z,99670.05
2018-09-04T05:42:10.021Z,99668.41
2018-09-04T05:43:48.574Z,99663.59
2018-09-04T05:45:25.572Z,99667.27
2018-09-04T05:47:01.097Z,99672.92
2018-09-04T05:48:36.602Z,99668.57
2018-09-04T05:50:12.152Z,99675.73
2018-09-04T05:51:47.662Z,99671.44
2018-09-04T05:53:23.149Z,99673.43
2018-09-04T05:54:58.774Z,99669.27
2018-09-04T05:56:34.317Z,99669.56
2018-09-04T05:58:09.805Z,99676.21
2018-09-04T05:59:49.547Z,99672.32
2018-09-04T06:01:25.258Z,99670.33
2018-09-04T06:03:01.246Z,99669.30
2018-09-04T06:04:37.033Z,99669.55
2018-09-04T06:06:12.510Z,99671.66
2018-09-04T06:07:48.056Z,99667.95
2018-09-04T06:09:29.032Z,99668.72
2018-09-04T06:11:04.900Z,99667.69
2018-09-04T06:12:40.539Z,99660.29
2018-09-04T06:14:16.221Z,99661.44
2018-09-04T06:15:51.809Z,99661.94
2018-09-04T06:17:27.963Z,99663.04
2018-09-04T06:19:03.628Z,99663.04
2018-09-04T06:20:40.161Z,99662.85
2018-09-04T06:22:16.192Z,99668.66
2018-09-04T06:23:51.664Z,99665.30
2018-09-04T06:25:27.286Z,99667.27
2018-09-04T06:27:02.787Z,99666.72
2018-09-04T06:28:38.375Z,99665.94
2018-09-04T06:30:14.581Z,99666.67
2018-09-04T06:31:50.135Z,99663.15
2018-09-04T06:33:25.638Z,99666.82
2018-09-04T06:35:01.812Z,99664.98
2018-09-04T06:36:37.371Z,99670.72
2018-09-04T06:38:13.488Z,99668.77
2018-09-04T06:39:50.136Z,99665.79
2018-09-04T06:41:25.632Z,99672.17
2018-09-04T06:43:01.331Z,99672.86
2018-09-04T06:44:36.832Z,99671.94
2018-09-04T06:46:12.378Z,99678.81
2018-09-04T06:47:48.655Z,99678.41
2018-09-04T06:49:24.274Z,99671.66
2018-09-04T06:51:00.112Z,99672.16
2018-09-04T06:52:35.618Z,99672.42
2018-09-04T06:54:11.127Z,99671.56
2018-09-04T06:55:47.204Z,99670.03
2018-09-04T06:57:23.129Z,99676.45
2018-09-04T06:58:58.633Z,99678.64
2018-09-04T07:00:34.133Z,99688.37
2018-09-04T07:02:09.666Z,99690.75
2018-09-04T07:05:31.739Z,99691.87
2018-09-04T07:07:09.770Z,99693.56
2018-09-04T07:08:45.315Z,99685.58
2018-09-04T07:10:21.339Z,99689.73
2018-09-04T07:11:59.467Z,99689.78
2018-09-04T07:13:35.385Z,99693.14
2018-09-04T07:15:12.257Z,99699.14
2018-09-04T07:16:48.674Z,99697.88
2018-09-04T07:18:24.187Z,99692.98
2018-09-04T07:19:59.824Z,99693.07
2018-09-04T07:21:36.344Z,99697.37
2018-09-04T07:23:12.207Z,99694.97
2018-09-04T07:24:47.706Z,99698.61
2018-09-04T07:26:24.296Z,99701.75
2018-09-04T07:27:59.778Z,99696.53
2018-09-04T07:29:36.324Z,99697.80
2018-09-04T07:31:12.035Z,99694.05
2018-09-04T07:32:47.599Z,99699.27
2018-09-04T07:34:23.205Z,99688.25
2018-09-04T07:35:58.752Z,99686.63
2018-09-04T07:37:34.252Z,99684.28
2018-09-04T07:39:10.816Z,99682.42
2018-09-04T07:40:46.344Z,99680.69
2018-09-04T07:42:21.867Z,99688.12
2018-09-04T07:43:57.351Z,99684.52
2018-09-04T07:45:33.251Z,99681.10
2018-09-04T07:47:08.801Z,99678.60
2018-09-04T07:48:44.326Z,99673.16
2018-09-04T07:50:19.847Z,99670.09
2018-09-04T07:51:55.331Z,99672.64
2018-09-04T07:53:31.300Z,99668.61
2018-09-04T07:55:06.939Z,99664.34
2018-09-04T07:56:42.419Z,99660.65
2018-09-04T07:58:17.955Z,99667.55
2018-09-04T07:59:53.589Z,99668.94
2018-09-04T08:01:29.233Z,99670.04
2018-09-04T08:03:04.701Z,99670.67
2018-09-04T08:04:40.208Z,99672.87
2018-09-04T08:06:15.691Z,99665.34
2018-09-04T08:07:51.211Z,99652.67
2018-09-04T08:09:26.663Z,99660.34
2018-09-04T08:11:02.195Z,99662.67
2018-09-04T08:12:39.017Z,99660.84
2018-09-04T08:14:14.528Z,99664.92
2018-09-04T08:15:50.158Z,99659.30
2018-09-04T08:17:25.676Z,99660.44
2018-09-04T08:19:01.255Z,99661.17
2018-09-04T08:20:37.900Z,99659.59
2018-09-04T08:22:14.351Z,99661.22
2018-09-04T08:23:49.860Z,99658.13
2018-09-04T08:25:29.617Z,99660.47
2018-09-04T08:27:05.737Z,99657.03
2018-09-04T08:28:43.341Z,99652.25
2018-09-04T08:30:18.863Z,99652.84
2018-09-04T08:31:54.378Z,99654.78
2018-09-04T08:33:29.918Z,99656.23
2018-09-04T08:35:05.398Z,99656.58
2018-09-04T08:36:40.875Z,99660.20
2018-09-04T08:38:16.488Z,99659.62
2018-09-04T08:39:52.010Z,99658.22
2018-09-04T08:41:27.507Z,99657.95
2018-09-04T08:43:03.301Z,99650.02
2018-09-04T08:44:38.870Z,99650.81
2018-09-04T08:46:15.203Z,99655.10
2018-09-04T08:47:51.758Z,99660.84
2018-09-04T08:49:27.094Z,99658.89
2018-09-04T08:51:02.610Z,99665.55
2018-09-04T08:52:38.122Z,99659.79
2018-09-04T08:54:13.627Z,99659.06
2018-09-04T08:55:49.124Z,99658.36
2018-09-04T08:57:24.655Z,99654.36
2018-09-04T08:59:00.304Z,99657.25
2018-09-04T09:00:35.848Z,99659.05
2018-09-04T09:02:11.377Z,99654.60
2018-09-04T09:03:46.912Z,99656.66
2018-09-04T09:05:22.426Z,99646.38
2018-09-04T09:06:58.287Z,99651.53
2018-09-04T09:08:33.825Z,99650.28
2018-09-04T09:10:09.807Z,99650.45
2018-09-04T09:11:46.554Z,99646.38
2018-09-04T09:13:23.084Z,99643.50
2018-09-04T09:14:59.592Z,99650.52
2018-09-04T09:16:35.321Z,99644.11
2018-09-04T09:18:11.075Z,99644.07
2018-09-04T09:19:46.613Z,99644.74
2018-09-04T09:21:22.592Z,99636.55
2018-09-04T09:22:58.207Z,99640.75
2018-09-04T09:24:33.731Z,99645.67
2018-09-04T09:26:09.299Z,99638.98
2018-09-04T09:27:47.312Z,99633.38
2018-09-04T09:29:23.505Z,99634.00
2018-09-04T09:30:59.237Z,99637.62
2018-09-04T09:32:34.764Z,99626.97
2018-09-04T09:34:10.364Z,99627.62
2018-09-04T09:35:45.898Z,99626.36
2018-09-04T09:37:21.667Z,99626.59
2018-09-04T09:38:57.256Z,99623.17
2018-09-04T09:40:32.793Z,99632.50
2018-09-04T09:42:11.791Z,99633.13
2018-09-04T09:43:47.320Z,99630.72
2018-09-04T09:45:23.245Z,99629.83
2018-09-04T09:47:01.926Z,99628.12
2018-09-04T09:48:40.317Z,99632.66
2018-09-04T09:50:15.895Z,99629.44
2018-09-04T09:51:51.390Z,99624.93
2018-09-04T09:53:27.025Z,99585.59
2018-09-04T09:55:02.460Z,99621.79
2018-09-04T09:56:38.010Z,99619.30
2018-09-04T09:58:13.564Z,99616.91
2018-09-04T09:59:49.203Z,99612.84
2018-09-04T10:01:30.812Z,99606.75
2018-09-04T10:03:11.695Z,99615.88
2018-09-04T10:04:47.216Z,99614.52
2018-09-04T10:06:22.806Z,99614.14
2018-09-04T10:07:58.426Z,99614.88
2018-09-04T10:09:33.884Z,99612.42
2018-09-04T10:11:10.194Z,99612.78
2018-09-04T10:12:47.729Z,99613.42
2018-09-04T10:14:23.283Z,99613.48
2018-09-04T10:15:59.766Z,99610.09
2018-09-04T10:17:35.638Z,99606.48
2018-09-04T10:19:11.882Z,99606.75
2018-09-04T10:20:48.646Z,99606.66
2018-09-04T10:22:24.269Z,99606.31
2018-09-04T10:23:59.808Z,99605.06
2018-09-04T10:25:35.310Z,99612.69
2018-09-04T10:27:10.811Z,99610.41
2018-09-04T10:28:46.320Z,99606.02
2018-09-04T10:30:21.934Z,99601.84
2018-09-04T10:31:57.423Z,99608.50
2018-09-04T10:33:32.986Z,99603.95
2018-09-04T10:35:08.525Z,99601.52
2018-09-04T10:36:45.014Z,99600.74
2018-09-04T10:38:24.061Z,99605.61
2018-09-04T10:40:05.065Z,99600.36
2018-09-04T10:41:40.544Z,99598.48
2018-09-04T10:43:16.035Z,99604.27
2018-09-04T10:44:51.852Z,99600.83
2018-09-04T10:46:27.358Z,99603.52
2018-09-04T10:48:02.987Z,99606.72
2018-09-04T10:49:38.468Z,99605.53
2018-09-04T10:51:14.016Z,99597.95
2018-09-04T10:52:49.766Z,99599.52
2018-09-04T10:54:25.265Z,99597.27
2018-09-04T10:56:00.757Z,99593.88
2018-09-04T10:57:36.300Z,99583.29
2018-09-04T10:59:11.829Z,99581.73
2018-09-04T11:00:47.346Z,99587.55
2018-09-04T11:02:22.957Z,99580.50
2018-09-04T11:03:58.367Z,99575.63
2018-09-04T11:05:33.898Z,99585.70
2018-09-04T11:07:10.891Z,99581.01
2018-09-04T11:08:46.550Z,99586.31
2018-09-04T11:10:22.116Z,99584.31
2018-09-04T11:11:57.853Z,99576.20
2018-09-04T11:13:33.845Z,99585.42
2018-09-04T11:15:09.605Z,99583.46
2018-09-04T11:16:45.828Z,99580.09
2018-09-04T11:18:21.352Z,99577.05
2018-09-04T11:19:56.905Z,99576.78
2018-09-04T11:21:33.105Z,99577.29
2018-09-04T11:23:08.698Z,99589.24
2018-09-04T11:24:44.248Z,99586.02
2018-09-04T11:26:19.838Z,99583.55
2018-09-04T11:27:55.883Z,99578.91
2018-09-04T11:31:11.890Z,99576.34
2018-09-04T11:32:47.452Z,99581.94
2018-09-04T11:34:27.193Z,99582.77
2018-09-04T11:36:02.729Z,99579.98
2018-09-04T11:37:38.274Z,99575.35
2018-09-04T11:39:13.738Z,99574.72
2018-09-04T11:40:50.072Z,99574.69
2018-09-04T11:42:25.617Z,99571.81
2018-09-04T11:44:01.219Z,99575.70
2018-09-04T11:45:37.522Z,99575.10
2018-09-04T11:47:13.434Z,99565.00
2018-09-04T11:48:49.676Z,99573.48
2018-09-04T11:50:25.153Z,99572.83
2018-09-04T11:52:00.704Z,99575.94
2018-09-04T11:53:36.238Z,99571.92
2018-09-04T11:55:12.080Z,99574.02
2018-09-04T11:56:47.537Z,99582.34
2018-09-04T11:58:23.968Z,99577.91
2018-09-04T11:59:59.924Z,99576.44
2018-09-04T12:01:36.296Z,99584.02
2018-09-04T12:03:13.280Z,99571.67
2018-09-04T12:04:48.809Z,99571.87
2018-09-04T12:06:24.767Z,99562.20
2018-09-04T12:08:00.272Z,99563.77
2018-09-04T12:09:35.812Z,99569.00
2018-09-04T12:11:11.395Z,99566.50
2018-09-04T12:12:47.091Z,99567.98
2018-09-04T12:14:22.648Z,99568.36
2018-09-04T12:15:58.786Z,99558.22
2018-09-04T12:17:34.342Z,99562.45
2018-09-04T12:19:11.816Z,99564.23
2018-09-04T12:20:48.797Z,99570.70
2018-09-04T12:22:24.990Z,99574.41
2018-09-04T12:24:00.571Z,99564.69
2018-09-04T12:25:36.088Z,99562.55
2018-09-04T12:27:11.805Z,99566.70
2018-09-04T12:28:47.579Z,99567.77
2018-09-04T12:30:23.631Z,99562.94
2018-09-04T12:31:59.105Z,99565.55
2018-09-04T12:33:36.536Z,99563.80
2018-09-04T12:35:13.304Z,99565.86
2018-09-04T12:36:49.190Z,99568.08
2018-09-04T12:38:29.803Z,99564.09
2018-09-04T12:40:06.533Z,99561.48
2018-09-04T12:41:42.046Z,99560.43
2018-09-04T12:43:18.027Z,99558.47
2018-09-04T12:44:59.341Z,99557.14
2018-09-04T12:46:35.253Z,99556.45
2018-09-04T12:48:13.079Z,99549.53
2018-09-04T12:49:48.614Z,99549.89
2018-09-04T12:51:24.543Z,99546.02
2018-09-04T12:53:00.110Z,99545.05
2018-09-04T12:54:35.607Z,99549.18
2018-09-04T12:56:11.868Z,99540.23
2018-09-04T12:57:47.577Z,99545.19
2018-09-04T12:59:23.040Z,99540.73
2018-09-04T13:00:59.097Z,99545.83
2018-09-04T13:02:34.591Z,99538.30
2018-09-04T13:04:10.900Z,99542.30
2018-09-04T13:05:46.921Z,99548.02
2018-09-04T13:07:22.437Z,99553.34
2018-09-04T13:08:58.115Z,99544.64
2018-09-04T13:10:33.550Z,99547.86
2018-09-04T13:12:14.891Z,99549.36
2018-09-04T13:16:11.193Z,99541.75
2018-09-04T13:18:00.207Z,99538.27
2018-09-04T13:19:38.679Z,99540.67
2018-09-04T13:21:14.204Z,99541.83
2018-09-04T13:22:50.000Z,99531.87
2018-09-04T13:24:25.604Z,99495.61
2018-09-04T13:26:01.312Z,99540.61
2018-09-04T13:27:37.245Z,99538.45
2018-09-04T13:29:13.445Z,99540.16
2018-09-04T13:30:49.735Z,99535.86
2018-09-04T13:32:25.528Z,99535.51
2018-09-04T13:34:01.016Z,99534.61
2018-09-04T13:35:37.148Z,99530.80
2018-09-04T13:37:15.165Z,99530.93
2018-09-04T13:38:56.008Z,99532.27
2018-09-04T13:40:31.993Z,99532.91
2018-09-04T13:42:08.473Z,99536.47
2018-09-04T13:43:43.984Z,99536.16
2018-09-04T13:45:26.526Z,99543.17
2018-09-04T13:47:02.057Z,99539.16
2018-09-04T13:48:37.539Z,99542.14
2018-09-04T13:50:13.384Z,99541.75
2018-09-04T13:51:50.165Z,99530.63
2018-09-04T13:53:25.968Z,99536.00
2018-09-04T13:55:01.509Z,99541.39
2018-09-04T13:56:37.154Z,99533.63
2018-09-04T13:58:12.673Z,99540.78
2018-09-04T13:59:48.152Z,99533.72
2018-09-04T14:01:24.124Z,99540.97
2018-09-04T14:02:59.629Z,99539.88
2018-09-04T14:04:35.255Z,99537.38
2018-09-04T14:06:11.213Z,99540.13
2018-09-04T14:07:47.762Z,99537.25
2018-09-04T14:09:23.268Z,99535.50
2018-09-04T14:10:58.763Z,99529.53
2018-09-04T14:12:35.266Z,99529.32
2018-09-04T14:14:10.994Z,99533.59
2018-09-04T14:15:47.272Z,99540.41
2018-09-04T14:17:22.932Z,99532.93
2018-09-04T14:18:58.596Z,99541.49
2018-09-04T14:20:34.102Z,99537.91
2018-09-04T14:22:09.641Z,99538.93
2018-09-04T14:23:45.721Z,99541.99
2018-09-04T14:25:21.288Z,99537.63
2018-09-04T14:26:58.175Z,99548.14
2018-09-04T14:28:41.489Z,99543.80
2018-09-04T14:30:16.671Z,99545.25
2018-09-04T14:31:45.090Z,99534.42
2018-09-04T14:33:20.563Z,99534.20
2018-09-04T14:34:56.096Z,99538.61
2018-09-04T14:36:32.802Z,99536.91
2018-09-04T14:38:11.027Z,99538.25
2018-09-04T14:39:55.585Z,99538.84
2018-09-04T14:41:22.263Z,99536.09
2018-09-04T14:42:58.647Z,99543.84
2018-09-04T14:44:34.122Z,99545.83
2018-09-04T14:46:09.619Z,99545.43
2018-09-04T14:47:45.096Z,99542.14
2018-09-04T14:49:20.694Z,99541.05
2018-09-04T14:50:56.843Z,99538.66
2018-09-04T14:52:32.515Z,99541.22
2018-09-04T14:54:08.286Z,99539.77
2018-09-04T14:55:43.794Z,99542.38
2018-09-04T14:57:20.895Z,99540.50
2018-09-04T14:58:56.761Z,99543.59
2018-09-04T15:00:32.273Z,99548.67
2018-09-04T15:02:07.899Z,99549.27
2018-09-04T15:03:43.455Z,99539.56
2018-09-04T15:05:18.993Z,99542.58
2018-09-04T15:06:54.572Z,99539.02
2018-09-04T15:08:30.091Z,99538.94
2018-09-04T15:10:05.831Z,99541.00
2018-09-04T15:11:41.520Z,99540.09
2018-09-04T15:13:17.021Z,99541.05
2018-09-04T15:14:52.675Z,99538.84
2018-09-04T15:16:28.156Z,99530.28
2018-09-04T15:18:04.033Z,99535.83
2018-09-04T15:19:39.560Z,99537.35
2018-09-04T15:21:17.881Z,99533.72
2018-09-04T15:22:53.515Z,99539.81
2018-09-04T15:24:28.985Z,99529.53
2018-09-04T15:26:04.615Z,99492.73
2018-09-04T15:27:40.174Z,99535.34
2018-09-04T15:29:15.681Z,99539.10
2018-09-04T15:30:51.509Z,99539.61
2018-09-04T15:32:27.684Z,99539.58
2018-09-04T15:34:03.855Z,99535.53
2018-09-04T15:35:39.388Z,99540.64
2018-09-04T15:37:14.842Z,99539.00
2018-09-04T15:38:50.300Z,99541.01
2018-09-04T15:40:25.833Z,99544.09
2018-09-04T15:42:01.364Z,99537.97
2018-09-04T15:43:36.848Z,99532.61
2018-09-04T15:45:12.328Z,99538.64
2018-09-04T15:46:47.860Z,99547.77
2018-09-04T15:48:24.278Z,99541.14
2018-09-04T15:49:59.746Z,99541.83
2018-09-04T15:51:35.575Z,99540.06
2018-09-04T15:53:11.388Z,99542.88
2018-09-04T15:54:46.949Z,99537.80
2018-09-04T15:56:22.551Z,99531.69
2018-09-04T15:57:58.223Z,99540.58
2018-09-04T15:59:33.524Z,99536.44
2018-09-04T16:01:09.538Z,99537.90
2018-09-04T16:02:45.024Z,99534.08
2018-09-04T16:04:21.089Z,99537.40
2018-09-04T16:05:56.869Z,99536.27
2018-09-04T16:07:32.438Z,99544.63
2018-09-04T16:09:14.545Z,99545.53
2018-09-04T16:10:50.239Z,99548.62
2018-09-04T16:12:25.868Z,99543.89
2018-09-04T16:14:02.766Z,99543.45
2018-09-04T16:15:38.788Z,99542.30
2018-09-04T16:17:15.307Z,99538.26
2018-09-04T16:18:51.954Z,99540.66
2018-09-04T16:20:32.550Z,99541.46
2018-09-04T16:22:08.040Z,99544.52
2018-09-04T16:23:43.615Z,99546.25
2018-09-04T16:25:20.903Z,99548.33
2018-09-04T16:26:57.419Z,99548.90
2018-09-04T16:28:33.337Z,99556.95
2018-09-04T16:30:10.169Z,99559.80
2018-09-04T16:31:45.800Z,99555.64
2018-09-04T16:33:28.504Z,99560.34
2018-09-04T16:35:04.052Z,99558.47
2018-09-04T16:36:41.321Z,99562.50
2018-09-04T16:38:16.824Z,99557.38
2018-09-04T16:39:57.945Z,99562.17
2018-09-04T16:41:34.934Z,99565.61
2018-09-04T16:43:10.570Z,99555.23
2018-09-04T16:44:46.224Z,99559.53
2018-09-04T16:46:21.789Z,99558.25
2018-09-04T16:47:58.782Z,99566.69
2018-09-04T16:49:35.849Z,99558.13
2018-09-04T16:51:14.360Z,99535.56
2018-09-04T16:52:56.647Z,99561.62
2018-09-04T16:54:32.191Z,99564.17
2018-09-04T16:56:08.869Z,99567.44
2018-09-04T16:57:52.510Z,99566.69
2018-09-04T16:59:38.463Z,99565.73
2018-09-04T17:04:06.403Z,99564.91
2018-09-04T17:05:41.930Z,99566.17
2018-09-04T17:07:17.445Z,99571.98
2018-09-04T17:08:53.891Z,99568.85
2018-09-04T17:10:29.452Z,99569.63
2018-09-04T17:12:04.984Z,99571.80
2018-09-04T17:13:40.950Z,99566.94
2018-09-04T17:15:16.464Z,99567.20
2018-09-04T17:16:52.181Z,99573.84
2018-09-04T17:18:28.005Z,99574.34
2018-09-04T17:20:03.612Z,99579.33
2018-09-04T17:21:39.485Z,99576.73
2018-09-04T17:23:15.732Z,99577.61
2018-09-04T17:24:51.294Z,99577.86
2018-09-04T17:26:26.811Z,99576.98
2018-09-04T17:28:02.282Z,99581.51
2018-09-04T17:29:37.805Z,99582.34
2018-09-04T17:31:13.302Z,99580.47
2018-09-04T17:32:48.857Z,99580.75
2018-09-04T17:34:24.492Z,99587.63
2018-09-04T17:36:00.147Z,99580.89
2018-09-04T17:37:35.711Z,99585.30
2018-09-04T17:39:11.261Z,99586.84
2018-09-04T17:40:46.748Z,99590.86
2018-09-04T17:42:22.219Z,99597.97
2018-09-04T17:43:57.801Z,99597.27
2018-09-04T17:45:33.360Z,99600.11
2018-09-04T17:47:08.888Z,99601.09
2018-09-04T17:48:44.488Z,99601.17
2018-09-04T17:50:20.004Z,99605.77
2018-09-04T17:51:55.561Z,99593.99
2018-09-04T17:53:31.412Z,99607.72
2018-09-04T17:55:07.971Z,99606.19
2018-09-04T17:56:43.498Z,99604.52
2018-09-04T17:58:18.969Z,99612.97
2018-09-04T17:59:54.481Z,99555.39
2018-09-04T18:01:30.169Z,99607.25
2018-09-04T18:03:06.975Z,99613.17
2018-09-04T18:04:43.386Z,99611.58
2018-09-04T18:06:19.130Z,99613.89
2018-09-04T18:07:54.725Z,99616.80
2018-09-04T18:09:30.272Z,99624.20
2018-09-04T18:11:05.852Z,99620.60
2018-09-04T18:12:41.385Z,99626.72
2018-09-04T18:14:16.883Z,99628.55
2018-09-04T18:15:52.692Z,99632.97
2018-09-04T18:17:28.194Z,99632.61
2018-09-04T18:19:03.781Z,99631.23
2018-09-04T18:20:39.652Z,99632.28
2018-09-04T18:22:15.954Z,99637.08
2018-09-04T18:23:51.478Z,99640.16
2018-09-04T18:25:26.988Z,99644.86
2018-09-04T18:27:02.524Z,99654.48
2018-09-04T18:28:38.031Z,99659.04
2018-09-04T18:30:13.549Z,99658.75
2018-09-04T18:31:49.055Z,99662.70
2018-09-04T18:33:24.624Z,99671.88
2018-09-04T18:35:00.113Z,99665.37
2018-09-04T18:36:35.663Z,99662.66
2018-09-04T18:38:11.188Z,99666.92
2018-09-04T18:39:46.673Z,99611.59
2018-09-04T18:41:22.333Z,99666.61
2018-09-04T18:42:57.912Z,99666.77
2018-09-04T18:44:33.997Z,99668.25
2018-09-04T18:46:09.825Z,99667.06
2018-09-04T18:47:45.850Z,99665.42
2018-09-04T18:49:22.054Z,99671.28
2018-09-04T18:50:57.624Z,99675.30
2018-09-04T18:52:34.192Z,99678.20
2018-09-04T18:54:09.689Z,99677.86
2018-09-04T18:55:45.197Z,99681.87